Time;durP1;ratioP1;P1;durP2;ratioP2;P2;SDS_P1;SDS_P2;PMS_P1;PMS_P2;Temp;Humidity;BMP_temperature;BMP_pressure;BME280_temperature;BME280_humidity;BME280_pressure;Samples;Min_cycle;Max_cycle;Signal;HPM_P1;HPM_P2
2022/10/28 00:00:20;;;;;;;18.13;9.73;;;15.00;99.90;;;;;;6239411;22;20022;-73
2022/10/28 00:02:46;;;;;;;16.85;9.82;;;15.00;99.90;;;;;;6238451;23;20400;-73
2022/10/28 00:05:12;;;;;;;17.55;10.10;;;15.00;99.90;;;;;;6239265;23;20326;-73
2022/10/28 00:07:37;;;;;;;13.43;9.13;;;15.00;99.90;;;;;;6238954;23;20000;-73
2022/10/28 00:10:03;;;;;;;12.85;9.43;;;14.90;99.90;;;;;;6239236;23;20011;-73
2022/10/28 00:12:29;;;;;;;15.40;9.05;;;14.90;99.90;;;;;;6238401;23;20004;-73
2022/10/28 00:14:54;;;;;;;13.75;8.93;;;14.80;99.90;;;;;;6239435;23;20004;-73
2022/10/28 00:17:20;;;;;;;14.50;10.02;;;14.70;99.90;;;;;;6240505;23;20279;-73
2022/10/28 00:19:45;;;;;;;20.52;12.77;;;14.70;99.90;;;;;;6241408;23;20015;-73
2022/10/28 00:22:11;;;;;;;14.38;10.23;;;14.80;99.90;;;;;;6241368;23;20008;-73
2022/10/28 00:24:36;;;;;;;18.75;10.98;;;14.80;99.90;;;;;;6241208;23;20030;-73
2022/10/28 00:27:02;;;;;;;17.58;11.63;;;14.90;99.90;;;;;;6240808;23;20028;-73
2022/10/28 00:29:27;;;;;;;15.93;11.88;;;14.90;99.90;;;;;;6241337;23;20083;-73
2022/10/28 00:31:54;;;;;;;13.65;9.82;;;14.90;99.90;;;;;;6241323;23;20429;-73
2022/10/28 00:34:23;;;;;;;17.05;11.25;;;14.80;99.90;;;;;;6241175;22;20334;-73
2022/10/28 00:36:48;;;;;;;20.25;10.57;;;14.90;99.90;;;;;;6241284;23;20050;-73
2022/10/28 00:39:17;;;;;;;14.15;10.60;;;14.80;99.90;;;;;;6241267;23;19996;-73
2022/10/28 00:41:47;;;;;;;25.90;11.70;;;16.30;99.90;;;;;;6240344;22;20032;-73
2022/10/28 00:44:47;;;;;;;16.38;10.63;;;14.60;99.90;;;;;;6241194;22;20000;-73
2022/10/28 00:47:36;;;;;;;17.95;12.23;;;14.70;99.90;;;;;;6241269;22;20325;-73
2022/10/28 00:50:23;;;;;;;24.23;13.85;;;14.60;99.90;;;;;;6241358;22;20035;-73
2022/10/28 00:52:57;;;;;;;17.20;11.38;;;14.60;99.90;;;;;;6240982;23;20042;-74
2022/10/28 00:55:24;;;;;;;16.52;12.43;;;14.60;99.90;;;;;;6241215;22;20406;-73
2022/10/28 00:57:55;;;;;;;21.75;11.73;;;14.60;99.90;;;;;;6240510;22;20008;-73
2022/10/28 01:00:21;;;;;;;17.50;11.10;;;14.60;99.90;;;;;;6240913;22;20000;-73
2022/10/28 01:02:48;;;;;;;13.07;11.05;;;14.50;99.90;;;;;;6240528;22;20004;-73
2022/10/28 01:05:29;;;;;;;18.42;11.98;;;14.50;99.90;;;;;;6240873;22;20028;-73
2022/10/28 01:07:58;;;;;;;20.95;13.90;;;14.50;99.90;;;;;;6240832;22;20433;-73
2022/10/28 01:10:37;;;;;;;16.48;12.65;;;14.50;99.90;;;;;;6240333;22;20003;-73
2022/10/28 01:13:12;;;;;;;21.85;13.13;;;14.50;99.90;;;;;;6241145;22;20007;-72
2022/10/28 01:15:54;;;;;;;18.00;13.07;;;14.60;99.90;;;;;;6240673;22;20079;-73
2022/10/28 01:18:37;;;;;;;20.80;13.30;;;14.60;99.90;;;;;;6240902;22;20000;-73
2022/10/28 01:21:49;;;;;;;22.60;14.18;;;14.40;99.90;;;;;;6241726;22;20090;-73
2022/10/28 01:24:52;;;;;;;19.30;12.70;;;14.40;99.90;;;;;;6240877;22;20103;-73
2022/10/28 01:27:36;;;;;;;22.05;13.55;;;14.40;99.90;;;;;;6240768;22;20030;-71
2022/10/28 01:30:15;;;;;;;16.02;13.60;;;14.40;99.90;;;;;;6240929;23;20002;-72
2022/10/28 01:33:35;;;;;;;24.67;14.32;;;14.50;99.90;;;;;;6241013;22;20004;-73
2022/10/28 01:36:12;;;;;;;18.00;14.75;;;14.50;99.90;;;;;;6147861;23;20041;-72
2022/10/28 01:38:57;;;;;;;17.85;13.73;;;14.20;99.90;;;;;;6147995;23;20048;-72
2022/10/28 01:41:32;;;;;;;21.55;13.88;;;14.50;99.90;;;;;;6147856;23;20006;-72
2022/10/28 01:44:11;;;;;;;19.75;14.13;;;14.50;99.90;;;;;;6147946;23;20066;-72
2022/10/28 01:46:41;;;;;;;19.58;13.25;;;14.50;99.90;;;;;;6147788;23;20012;-72
2022/10/28 01:49:17;;;;;;;24.27;14.75;;;14.50;99.90;;;;;;6147897;23;19998;-72
2022/10/28 01:51:50;;;;;;;19.38;15.48;;;14.50;99.90;;;;;;6147994;23;20005;-72
2022/10/28 01:54:21;;;;;;;19.30;13.35;;;14.50;99.90;;;;;;6147207;23;20781;-73
2022/10/28 01:56:48;;;;;;;17.25;12.90;;;14.50;99.90;;;;;;6148043;23;20709;-72
2022/10/28 01:59:21;;;;;;;20.05;13.45;;;14.50;99.90;;;;;;6147728;23;20028;-72
2022/10/28 02:01:47;;;;;;;20.25;13.65;;;14.50;99.90;;;;;;6147791;23;20421;-72
2022/10/28 02:04:13;;;;;;;18.88;12.48;;;14.40;99.90;;;;;;6147801;23;20037;-73
2022/10/28 02:06:41;;;;;;;18.95;12.80;;;14.30;99.90;;;;;;6147973;23;20067;-72
2022/10/28 02:09:44;;;;;;;22.15;12.77;;;14.30;99.90;;;;;;6160644;23;20022;-72
2022/10/28 02:12:21;;;;;;;19.08;12.10;;;14.30;99.90;;;;;;6240771;22;20062;-72
2022/10/28 02:14:55;;;;;;;16.50;13.38;;;14.20;99.90;;;;;;6241700;22;19997;-72
2022/10/28 02:17:36;;;;;;;19.70;12.80;;;14.20;99.90;;;;;;6242734;23;20015;-73
2022/10/28 02:20:40;;;;;;;21.92;14.52;;;14.20;99.90;;;;;;6242799;22;20004;-72
2022/10/28 02:23:26;;;;;;;16.90;12.85;;;14.20;99.90;;;;;;6148915;23;20092;-72
2022/10/28 02:26:04;;;;;;;18.88;13.10;;;14.00;99.90;;;;;;6149616;23;20065;-72
2022/10/28 02:29:02;;;;;;;21.77;13.25;;;14.00;99.90;;;;;;6149279;23;20095;-72
2022/10/28 02:31:39;;;;;;;15.85;12.45;;;13.90;99.90;;;;;;6104938;23;20347;-72
2022/10/28 02:34:10;;;;;;;24.13;15.23;;;13.90;99.90;;;;;;6149607;23;20005;-72
2022/10/28 02:36:43;;;;;;;16.88;14.10;;;13.90;99.90;;;;;;6149688;23;20017;-72
2022/10/28 02:39:10;;;;;;;23.02;14.25;;;13.90;99.90;;;;;;6149038;23;20555;-73
2022/10/28 02:41:59;;;;;;;23.92;14.95;;;13.80;99.90;;;;;;6149490;23;20491;-72
2022/10/28 02:44:36;;;;;;;22.38;15.45;;;14.00;99.90;;;;;;6124634;23;20428;-72
2022/10/28 02:47:13;;;;;;;21.25;13.65;;;14.00;99.90;;;;;;6149699;23;19998;-73
2022/10/28 02:49:42;;;;;;;25.77;15.57;;;14.00;99.90;;;;;;6149070;23;20036;-73
2022/10/28 02:52:09;;;;;;;20.40;14.15;;;14.00;99.90;;;;;;6148764;23;20351;-72
2022/10/28 02:54:42;;;;;;;19.33;14.57;;;14.00;99.90;;;;;;6149676;23;20017;-72
2022/10/28 02:57:17;;;;;;;19.35;13.52;;;13.90;99.90;;;;;;6199775;23;20028;-72
2022/10/28 02:59:54;;;;;;;18.80;12.60;;;14.00;99.90;;;;;;6242311;22;20000;-73
2022/10/28 03:02:20;;;;;;;19.05;13.70;;;13.90;99.90;;;;;;6241955;22;20004;-73
2022/10/28 03:04:45;;;;;;;23.70;12.82;;;13.80;99.90;;;;;;6242149;23;20007;-72
2022/10/28 03:07:11;;;;;;;18.00;13.25;;;13.90;99.90;;;;;;6241281;23;20000;-72
2022/10/28 03:09:36;;;;;;;17.60;14.23;;;13.80;99.90;;;;;;6242096;23;20004;-73
2022/10/28 03:12:02;;;;;;;18.10;12.77;;;13.80;99.90;;;;;;6242344;23;20062;-72
2022/10/28 03:14:27;;;;;;;19.98;13.27;;;13.80;99.90;;;;;;6241938;23;20062;-73
2022/10/28 03:16:53;;;;;;;22.42;13.23;;;13.70;99.90;;;;;;6241634;23;20050;-73
2022/10/28 03:19:18;;;;;;;18.67;13.18;;;13.80;99.90;;;;;;6241953;23;20008;-73
2022/10/28 03:21:44;;;;;;;19.35;12.07;;;13.70;99.90;;;;;;6241043;23;20075;-72
2022/10/28 03:24:09;;;;;;;20.15;13.65;;;13.50;99.90;;;;;;6241988;23;20005;-74
2022/10/28 03:26:35;;;;;;;20.60;14.40;;;13.70;99.90;;;;;;6242106;23;20380;-73
2022/10/28 03:29:00;;;;;;;19.10;13.35;;;13.70;99.90;;;;;;6241591;23;20058;-72
2022/10/28 03:31:26;;;;;;;19.08;12.27;;;13.70;99.90;;;;;;6242069;23;20295;-72
2022/10/28 03:33:51;;;;;;;17.48;13.27;;;13.70;99.90;;;;;;6241925;23;20042;-72
2022/10/28 03:36:17;;;;;;;19.67;11.60;;;13.70;99.90;;;;;;6241063;23;20055;-72
2022/10/28 03:38:42;;;;;;;18.60;12.02;;;13.60;99.90;;;;;;6241829;23;20030;-73
2022/10/28 03:41:08;;;;;;;24.60;13.50;;;13.50;99.90;;;;;;6241925;23;20117;-73
2022/10/28 03:43:33;;;;;;;17.17;12.50;;;13.50;99.90;;;;;;6241670;23;20126;-73
2022/10/28 03:45:59;;;;;;;20.48;13.15;;;13.60;99.90;;;;;;6241602;23;20004;-73
2022/10/28 03:48:24;;;;;;;23.27;12.85;;;13.60;99.90;;;;;;6241287;23;20008;-72
2022/10/28 03:50:54;;;;;;;15.63;12.88;;;13.50;99.90;;;;;;6241207;23;20071;-72
2022/10/28 03:53:20;;;;;;;17.45;12.68;;;13.50;99.90;;;;;;6241845;22;20007;-72
2022/10/28 03:55:56;;;;;;;20.60;12.68;;;13.50;99.90;;;;;;6241802;22;20004;-72
2022/10/28 03:58:23;;;;;;;15.30;10.65;;;13.90;99.90;;;;;;6241604;22;20004;-73
2022/10/28 04:00:49;;;;;;;17.73;12.10;;;13.50;99.90;;;;;;6241500;22;19997;-73
2022/10/28 04:03:16;;;;;;;20.40;12.75;;;13.40;99.90;;;;;;6241218;22;20042;-73
2022/10/28 04:05:42;;;;;;;20.40;13.18;;;13.40;99.90;;;;;;6241153;22;20046;-73
2022/10/28 04:08:07;;;;;;;19.75;12.98;;;13.40;99.90;;;;;;6241652;22;20335;-73
2022/10/28 04:10:33;;;;;;;15.98;12.30;;;13.40;99.90;;;;;;6241891;23;20050;-73
2022/10/28 04:13:03;;;;;;;20.13;12.85;;;13.50;99.90;;;;;;6241861;23;20070;-73
2022/10/28 04:15:30;;;;;;;16.50;11.52;;;13.40;99.90;;;;;;6241923;22;20004;-73
2022/10/28 04:17:55;;;;;;;16.80;12.55;;;13.40;99.90;;;;;;6241327;22;20004;-73
2022/10/28 04:20:21;;;;;;;19.45;12.10;;;13.40;99.90;;;;;;6240617;23;20004;-73
2022/10/28 04:22:47;;;;;;;14.50;10.55;;;13.30;99.90;;;;;;6240976;22;20008;-73
2022/10/28 04:25:13;;;;;;;18.55;11.90;;;13.20;99.90;;;;;;6241199;23;20035;-72
2022/10/28 04:27:38;;;;;;;18.08;11.93;;;13.30;99.90;;;;;;6240915;23;20418;-73
2022/10/28 04:30:04;;;;;;;15.38;11.38;;;13.30;99.90;;;;;;6241356;23;20000;-72
2022/10/28 04:32:30;;;;;;;14.57;11.35;;;13.30;99.90;;;;;;6241533;22;20379;-73
2022/10/28 04:34:56;;;;;;;16.67;11.15;;;13.20;99.90;;;;;;6240695;23;20075;-72
2022/10/28 04:37:21;;;;;;;14.73;10.68;;;13.30;99.90;;;;;;6240638;23;20061;-73
2022/10/28 04:39:47;;;;;;;15.18;12.23;;;13.20;99.90;;;;;;6241284;23;20020;-73
2022/10/28 04:42:13;;;;;;;18.20;11.68;;;13.20;99.90;;;;;;6241409;23;20083;-73
2022/10/28 04:44:38;;;;;;;19.48;11.25;;;13.10;99.90;;;;;;6241171;23;20079;-72
2022/10/28 04:47:04;;;;;;;17.95;10.65;;;13.10;99.90;;;;;;6241270;23;20028;-72
2022/10/28 04:49:29;;;;;;;16.52;11.32;;;13.20;99.90;;;;;;6240757;23;20003;-74
2022/10/28 04:51:55;;;;;;;15.35;11.20;;;13.10;99.90;;;;;;6241195;23;20015;-73
2022/10/28 04:54:20;;;;;;;11.95;10.27;;;13.10;99.90;;;;;;6240910;23;20008;-73
2022/10/28 04:56:46;;;;;;;19.10;10.70;;;13.20;99.90;;;;;;6239670;23;20015;-73
2022/10/28 04:59:12;;;;;;;21.30;11.00;;;13.10;99.90;;;;;;6241011;23;20019;-72
2022/10/28 05:01:37;;;;;;;17.02;10.30;;;13.10;99.90;;;;;;6240803;23;20034;-73
2022/10/28 05:04:03;;;;;;;14.55;10.55;;;13.10;99.90;;;;;;6240395;23;20000;-73
2022/10/28 05:06:28;;;;;;;16.23;10.45;;;13.10;99.90;;;;;;6241359;23;20031;-73
2022/10/28 05:08:54;;;;;;;15.18;10.77;;;13.10;99.90;;;;;;6240751;23;20065;-73
2022/10/28 05:11:20;;;;;;;16.77;10.38;;;13.10;99.90;;;;;;6241061;23;20354;-73
2022/10/28 05:13:45;;;;;;;14.40;9.50;;;13.10;99.90;;;;;;6240831;23;20008;-73
2022/10/28 05:16:11;;;;;;;13.65;9.73;;;13.00;99.90;;;;;;6264609;22;20023;-72
2022/10/28 05:18:36;;;;;;;13.55;9.60;;;13.10;99.90;;;;;;6240173;23;20050;-73
2022/10/28 05:21:02;;;;;;;17.80;10.43;;;13.00;99.90;;;;;;6241027;23;20000;-72
2022/10/28 05:23:27;;;;;;;12.63;9.50;;;13.00;99.90;;;;;;6240834;23;20004;-73
2022/10/28 05:25:53;;;;;;;12.63;10.10;;;13.00;99.90;;;;;;6240864;23;20004;-72
2022/10/28 05:28:19;;;;;;;13.77;10.10;;;13.00;99.90;;;;;;6240165;23;20008;-72
2022/10/28 05:30:44;;;;;;;15.13;10.57;;;13.00;99.90;;;;;;6240951;23;20000;-73
2022/10/28 05:33:10;;;;;;;15.93;9.30;;;13.10;99.90;;;;;;6240095;23;20426;-72
2022/10/28 05:35:37;;;;;;;14.50;9.43;;;13.00;99.90;;;;;;6241073;22;20060;-72
2022/10/28 05:38:03;;;;;;;18.33;9.68;;;13.20;99.90;;;;;;6240193;22;20001;-73
2022/10/28 05:40:31;;;;;;;12.82;9.18;;;13.00;99.90;;;;;;6240523;22;20008;-72
2022/10/28 05:42:57;;;;;;;20.83;10.48;;;12.90;99.90;;;;;;6240215;22;20012;-72
2022/10/28 05:45:22;;;;;;;15.35;10.30;;;13.00;99.90;;;;;;6239737;22;20397;-73
2022/10/28 05:47:48;;;;;;;15.80;9.02;;;13.10;99.90;;;;;;6240060;22;20094;-72
2022/10/28 05:50:16;;;;;;;12.30;8.68;;;13.40;99.90;;;;;;6242856;23;20079;-73
2022/10/28 05:52:46;;;;;;;13.73;8.75;;;13.10;99.90;;;;;;6242874;22;20004;-73
2022/10/28 05:55:11;;;;;;;12.48;9.15;;;13.20;99.90;;;;;;6242839;22;20004;-72
2022/10/28 05:57:37;;;;;;;14.07;8.30;;;14.90;99.90;;;;;;6242646;23;20004;-73
2022/10/28 06:00:03;;;;;;;15.93;8.57;;;13.40;99.90;;;;;;6242282;23;20003;-73
2022/10/28 06:02:29;;;;;;;11.25;7.90;;;13.60;99.90;;;;;;6242521;22;20015;-73
2022/10/28 06:04:54;;;;;;;11.38;7.50;;;13.70;99.90;;;;;;6242634;23;20004;-72
2022/10/28 06:07:20;;;;;;;18.15;8.93;;;13.70;99.90;;;;;;6242315;23;20465;-72
2022/10/28 06:09:45;;;;;;;14.75;8.52;;;13.80;99.90;;;;;;6242761;23;20000;-73
2022/10/28 06:12:11;;;;;;;13.85;8.52;;;13.90;99.90;;;;;;6242699;23;20000;-73
2022/10/28 06:14:36;;;;;;;15.70;9.18;;;14.70;99.90;;;;;;6242245;23;20011;-72
2022/10/28 06:17:02;;;;;;;16.42;7.95;;;14.00;99.90;;;;;;6242486;23;20483;-73
2022/10/28 06:19:28;;;;;;;24.83;8.60;;;14.00;99.90;;;;;;6242715;22;20063;-73
2022/10/28 06:21:53;;;;;;;13.98;7.45;;;14.10;99.90;;;;;;6241534;23;20004;-73
2022/10/28 06:24:19;;;;;;;14.07;8.20;;;14.10;99.90;;;;;;6242415;23;20409;-73
2022/10/28 06:26:44;;;;;;;11.40;8.05;;;14.10;99.90;;;;;;6242407;23;19996;-73
2022/10/28 06:29:10;;;;;;;13.43;7.88;;;14.20;99.90;;;;;;6241533;23;20000;-72
2022/10/28 06:31:40;;;;;;;14.15;8.10;;;14.20;99.90;;;;;;6242349;23;20008;-72
2022/10/28 06:34:05;;;;;;;17.88;8.68;;;14.20;99.90;;;;;;6242330;22;20004;-72
2022/10/28 06:36:31;;;;;;;16.75;8.23;;;13.50;99.90;;;;;;6242319;23;20003;-72
2022/10/28 06:38:56;;;;;;;16.08;7.30;;;15.30;99.90;;;;;;6242209;23;20011;-73
2022/10/28 06:41:22;;;;;;;13.32;7.90;;;14.40;99.90;;;;;;6241387;23;19998;-73
2022/10/28 06:43:47;;;;;;;14.73;6.22;;;14.60;99.90;;;;;;6241406;23;20027;-73
2022/10/28 06:46:13;;;;;;;14.27;7.18;;;15.40;99.90;;;;;;6242204;23;20355;-73
2022/10/28 06:48:38;;;;;;;12.55;7.25;;;14.40;99.90;;;;;;6241922;23;20016;-73
2022/10/28 06:51:04;;;;;;;13.95;6.90;;;14.50;99.90;;;;;;6242395;23;20083;-70
2022/10/28 06:53:29;;;;;;;11.52;7.57;;;14.50;99.90;;;;;;6240955;22;20133;-71
2022/10/28 06:55:56;;;;;;;14.50;7.30;;;14.50;99.90;;;;;;6241378;23;20158;-71
2022/10/28 06:58:23;;;;;;;15.70;6.25;;;12.80;99.90;;;;;;6240910;22;20042;-71
2022/10/28 07:00:49;;;;;;;11.77;6.70;;;14.60;99.90;;;;;;6241058;22;20000;-70
2022/10/28 07:03:15;;;;;;;14.85;7.18;;;14.80;99.90;;;;;;6264774;22;20014;-70
2022/10/28 07:05:40;;;;;;;11.40;7.85;;;14.80;99.90;;;;;;6241525;22;19996;-70
2022/10/28 07:08:06;;;;;;;9.95;7.63;;;14.90;99.90;;;;;;6241172;23;20000;-69
2022/10/28 07:10:32;;;;;;;14.20;6.97;;;15.00;99.90;;;;;;6241502;23;20079;-70
2022/10/28 07:12:57;;;;;;;14.07;7.80;;;15.00;99.90;;;;;;6241151;23;20282;-71
2022/10/28 07:15:23;;;;;;;16.50;7.07;;;15.00;99.90;;;;;;6239183;23;20011;-69
2022/10/28 07:17:56;;;;;;;18.15;7.65;;;15.10;99.90;;;;;;6241779;23;20004;-70
2022/10/28 07:20:24;;;;;;;14.40;7.13;;;15.10;99.90;;;;;;6241316;22;20011;-70
2022/10/28 07:22:57;;;;;;;11.88;7.38;;;15.30;99.90;;;;;;6240745;22;20012;-71
2022/10/28 07:25:22;;;;;;;15.50;7.93;;;15.30;99.90;;;;;;6240964;22;20000;-70
2022/10/28 07:27:48;;;;;;;12.98;7.32;;;15.30;99.90;;;;;;6239908;23;20000;-69
2022/10/28 07:30:13;;;;;;;15.48;6.78;;;16.20;99.90;;;;;;6240605;23;20000;-70
2022/10/28 07:32:39;;;;;;;11.23;7.50;;;15.40;99.90;;;;;;6240813;23;20032;-70
2022/10/28 07:35:05;;;;;;;16.17;7.13;;;15.40;99.90;;;;;;6240964;23;20348;-70
2022/10/28 07:37:30;;;;;;;9.38;6.57;;;15.40;99.90;;;;;;6241043;23;20004;-70
2022/10/28 07:39:56;;;;;;;13.90;6.40;;;16.40;99.90;;;;;;6241023;23;20405;-72
2022/10/28 07:42:21;;;;;;;12.25;6.78;;;15.50;99.90;;;;;;6240562;23;20000;-71
2022/10/28 07:44:47;;;;;;;13.48;7.63;;;15.50;99.90;;;;;;6241386;23;19999;-71
2022/10/28 07:47:13;;;;;;;12.68;6.63;;;15.50;99.90;;;;;;6241082;23;20433;-71
2022/10/28 07:49:38;;;;;;;14.10;7.22;;;15.60;99.90;;;;;;6240843;23;20418;-70
2022/10/28 07:52:03;;;;;;;12.45;8.13;;;15.50;99.90;;;;;;6240775;23;20004;-71
2022/10/28 07:54:30;;;;;;;14.35;7.30;;;15.50;99.90;;;;;;6241096;23;20030;-71
2022/10/28 07:56:57;;;;;;;13.40;6.93;;;15.60;99.90;;;;;;6240335;22;20032;-71
2022/10/28 07:59:23;;;;;;;12.20;6.97;;;15.60;99.90;;;;;;6264540;22;20418;-71
2022/10/28 08:01:49;;;;;;;14.55;6.57;;;15.80;99.90;;;;;;6240965;22;20032;-71
2022/10/28 08:04:15;;;;;;;16.65;6.85;;;15.60;99.90;;;;;;6240502;23;20004;-70
2022/10/28 08:06:40;;;;;;;17.80;7.30;;;15.70;99.90;;;;;;6240802;23;19996;-70
2022/10/28 08:09:06;;;;;;;13.65;7.38;;;15.80;99.90;;;;;;6240859;23;20117;-70
2022/10/28 08:11:31;;;;;;;10.55;8.25;;;15.80;99.90;;;;;;6240553;23;20369;-70
2022/10/28 08:13:57;;;;;;;13.18;7.30;;;15.90;99.90;;;;;;6240985;23;20054;-71
2022/10/28 08:16:22;;;;;;;11.85;6.18;;;16.00;99.90;;;;;;6240951;23;20000;-70
2022/10/28 08:18:48;;;;;;;14.48;7.13;;;16.10;99.90;;;;;;6240997;22;20008;-70
2022/10/28 08:21:14;;;;;;;9.57;7.13;;;16.20;99.90;;;;;;6265041;22;20095;-70
2022/10/28 08:23:40;;;;;;;14.55;6.90;;;16.30;99.90;;;;;;6241267;22;20005;-70
2022/10/28 08:26:06;;;;;;;17.33;7.03;;;16.30;99.90;;;;;;6240952;22;20004;-70
2022/10/28 08:28:32;;;;;;;13.73;7.78;;;16.50;99.90;;;;;;6240936;22;20092;-70
2022/10/28 08:31:02;;;;;;;9.77;6.45;;;16.50;99.90;;;;;;6241227;23;20032;-70
2022/10/28 08:33:31;;;;;;;16.77;7.95;;;16.60;99.90;;;;;;6241180;22;20004;-70
2022/10/28 08:35:56;;;;;;;11.38;5.90;;;16.70;99.90;;;;;;6241268;22;20463;-70
2022/10/28 08:38:22;;;;;;;12.70;6.40;;;16.70;99.90;;;;;;6240729;23;20024;-70
2022/10/28 08:41:20;;;;;;;10.52;6.43;;;16.70;99.90;;;;;;6240739;23;20047;-70
2022/10/28 08:44:03;;;;;;;11.15;7.63;;;16.80;99.90;;;;;;6241210;22;20027;-70
2022/10/28 08:46:57;;;;;;;14.32;7.68;;;16.90;99.90;;;;;;6241037;23;20303;-70
2022/10/28 08:49:23;;;;;;;16.02;6.90;;;17.40;99.90;;;;;;6240726;22;20473;-70
2022/10/28 08:52:20;;;;;;;13.52;6.55;;;17.10;99.90;;;;;;6240940;23;20026;-70
2022/10/28 08:54:54;;;;;;;12.57;6.30;;;17.10;99.90;;;;;;6240162;22;20008;-70
2022/10/28 08:57:40;;;;;;;11.15;7.55;;;17.20;99.90;;;;;;6240950;22;19999;-70
2022/10/28 09:00:15;;;;;;;14.85;6.45;;;17.30;99.90;;;;;;6240775;22;20004;-70
2022/10/28 09:02:51;;;;;;;13.60;6.55;;;17.30;99.90;;;;;;6240891;22;20015;-70
2022/10/28 09:05:26;;;;;;;13.10;7.05;;;17.40;99.90;;;;;;6240580;22;20007;-70
2022/10/28 09:07:53;;;;;;;22.90;8.18;;;17.60;99.90;;;;;;6240996;23;20007;-70
2022/10/28 09:10:33;;;;;;;14.35;6.80;;;17.60;99.90;;;;;;6239466;22;20426;-70
2022/10/28 09:13:04;;;;;;;15.05;7.55;;;17.80;99.90;;;;;;6240460;23;20007;-70
2022/10/28 09:15:43;;;;;;;14.90;7.88;;;17.90;99.90;;;;;;6240208;23;20069;-70
2022/10/28 09:18:18;;;;;;;13.63;7.72;;;18.00;99.90;;;;;;6240085;22;20000;-70
2022/10/28 09:20:53;;;;;;;14.50;8.43;;;18.10;99.90;;;;;;6239875;22;20398;-70
2022/10/28 09:23:29;;;;;;;17.23;7.28;;;18.30;99.90;;;;;;6239134;22;20008;-70
2022/10/28 09:26:07;;;;;;;13.48;7.85;;;18.40;99.90;;;;;;6239912;22;20004;-70
2022/10/28 09:28:58;;;;;;;9.43;7.35;;;19.60;99.90;;;;;;6237995;23;20540;-70
2022/10/28 09:31:29;;;;;;;15.93;7.38;;;18.40;99.90;;;;;;6263755;22;20004;-70
2022/10/28 09:34:24;;;;;;;17.70;8.55;;;18.70;99.90;;;;;;6239846;23;20028;-71
2022/10/28 09:37:11;;;;;;;16.90;7.88;;;18.80;99.90;;;;;;6240396;22;20008;-70
2022/10/28 09:39:48;;;;;;;10.57;7.35;;;18.90;99.90;;;;;;6238803;23;20008;-70
2022/10/28 09:42:20;;;;;;;11.57;7.28;;;19.50;99.90;;;;;;6239885;22;20000;-70
2022/10/28 09:45:03;;;;;;;13.32;8.95;;;19.00;99.90;;;;;;6240820;22;20000;-69
2022/10/28 09:47:41;;;;;;;13.80;7.75;;;19.10;99.90;;;;;;6240717;22;20422;-70
2022/10/28 09:50:16;;;;;;;12.27;7.78;;;19.10;99.90;;;;;;6240431;22;20005;-70
2022/10/28 09:53:17;;;;;;;12.88;8.25;;;19.10;99.90;;;;;;6240590;22;20396;-70
2022/10/28 09:55:43;;;;;;;16.70;8.07;;;19.20;99.90;;;;;;6214341;23;20298;-70
2022/10/28 09:58:11;;;;;;;18.40;8.35;;;19.40;99.90;;;;;;6240226;23;20004;-70
2022/10/28 10:00:37;;;;;;;13.43;6.97;;;19.40;99.90;;;;;;6240094;22;20004;-71
2022/10/28 10:03:03;;;;;;;18.23;8.45;;;19.50;99.90;;;;;;6240188;23;20004;-70
2022/10/28 10:05:31;;;;;;;13.63;7.57;;;20.60;99.90;;;;;;6239947;23;20472;-70
2022/10/28 10:08:00;;;;;;;13.93;8.40;;;19.40;99.90;;;;;;6239931;22;20022;-70
2022/10/28 10:10:34;;;;;;;13.30;8.27;;;19.40;99.90;;;;;;6240314;22;20099;-70
2022/10/28 10:13:03;;;;;;;15.35;9.25;;;19.30;99.90;;;;;;6240476;22;20071;-70
2022/10/28 10:15:49;;;;;;;15.27;7.75;;;19.30;99.90;;;;;;6240095;22;19996;-70
2022/10/28 10:18:22;;;;;;;17.13;7.43;;;19.50;99.90;;;;;;6240502;22;20060;-70
2022/10/28 10:20:57;;;;;;;10.30;7.43;;;19.40;99.90;;;;;;6240163;22;20492;-70
2022/10/28 10:23:31;;;;;;;16.08;7.70;;;19.60;99.90;;;;;;6240200;22;20030;-70
2022/10/28 10:26:12;;;;;;;13.73;8.43;;;19.50;99.90;;;;;;6240276;22;19996;-70
2022/10/28 10:28:47;;;;;;;17.23;8.27;;;19.50;99.90;;;;;;6263879;22;20012;-70
2022/10/28 10:31:19;;;;;;;12.38;8.05;;;19.50;99.90;;;;;;6240045;22;20000;-70
2022/10/28 10:33:50;;;;;;;11.82;7.25;;;19.50;99.90;;;;;;6240394;22;20000;-71
2022/10/28 10:36:20;;;;;;;13.02;6.97;;;19.50;99.90;;;;;;6240691;22;20008;-70
2022/10/28 10:38:48;;;;;;;12.35;7.35;;;19.50;99.90;;;;;;6241331;22;20130;-70
2022/10/28 10:41:36;;;;;;;9.35;6.18;;;19.50;99.90;;;;;;6241231;22;20418;-70
2022/10/28 10:44:21;;;;;;;13.75;6.60;;;19.50;99.90;;;;;;6242163;22;20300;-70
2022/10/28 10:46:59;;;;;;;12.70;6.80;;;19.60;99.90;;;;;;6241669;23;20096;-70
2022/10/28 10:49:26;;;;;;;10.60;6.35;;;19.70;99.90;;;;;;6241436;23;20003;-70
2022/10/28 10:51:55;;;;;;;11.05;6.60;;;19.90;99.90;;;;;;6241159;22;20012;-70
2022/10/28 10:54:22;;;;;;;11.43;5.45;;;19.70;99.90;;;;;;6241446;22;20010;-70
2022/10/28 10:56:47;;;;;;;12.68;6.22;;;19.80;99.90;;;;;;6242002;22;20058;-71
2022/10/28 10:59:23;;;;;;;12.93;6.03;;;19.90;99.90;;;;;;6241780;23;19996;-70
2022/10/28 11:01:49;;;;;;;11.18;5.15;;;19.90;99.90;;;;;;6242276;22;20000;-70
2022/10/28 11:04:18;;;;;;;12.05;5.93;;;19.90;99.90;;;;;;6240142;23;20007;-70
2022/10/28 11:06:49;;;;;;;13.88;6.18;;;20.00;99.90;;;;;;6241472;22;20030;-70
2022/10/28 11:09:30;;;;;;;9.98;5.72;;;20.00;99.90;;;;;;6241641;22;20108;-70
2022/10/28 11:11:56;;;;;;;11.60;6.47;;;20.10;99.90;;;;;;6242210;22;20036;-71
2022/10/28 11:14:24;;;;;;;14.73;5.45;;;20.40;99.90;;;;;;6241804;23;20011;-70
2022/10/28 11:16:52;;;;;;;11.93;6.80;;;20.00;99.90;;;;;;6241867;22;20362;-70
2022/10/28 11:19:23;;;;;;;15.45;5.47;;;20.20;99.90;;;;;;6241035;22;20091;-70
2022/10/28 11:22:00;;;;;;;12.43;5.07;;;20.40;99.90;;;;;;6241790;22;19996;-70
2022/10/28 11:24:45;;;;;;;12.98;5.82;;;20.60;99.90;;;;;;6242149;22;20063;-70
2022/10/28 11:27:33;;;;;;;12.52;5.32;;;20.50;99.90;;;;;;6241969;22;20050;-69
2022/10/28 11:30:00;;;;;;;11.15;6.00;;;20.60;99.90;;;;;;6241789;23;20009;-70
2022/10/28 11:32:52;;;;;;;13.30;5.82;;;20.60;99.90;;;;;;6241751;22;20146;-70
2022/10/28 11:35:34;;;;;;;13.63;6.78;;;20.70;99.90;;;;;;6241112;23;20004;-70
2022/10/28 11:38:13;;;;;;;11.85;5.57;;;20.70;99.90;;;;;;6241647;22;20004;-70
2022/10/28 11:41:07;;;;;;;11.80;4.45;;;20.80;99.90;;;;;;6241329;23;20441;-70
2022/10/28 11:43:56;;;;;;;13.50;5.20;;;20.90;99.90;;;;;;6242083;23;20008;-70
2022/10/28 11:46:46;;;;;;;16.42;6.60;;;21.00;99.90;;;;;;6241509;22;19997;-71
2022/10/28 11:49:20;;;;;;;10.98;4.93;;;21.10;99.90;;;;;;6241155;23;20373;-70
2022/10/28 11:51:45;;;;;;;10.30;4.75;;;21.10;99.90;;;;;;6241949;23;20029;-70
2022/10/28 11:54:16;;;;;;;10.60;5.30;;;21.20;99.90;;;;;;6241775;23;20006;-70
2022/10/28 11:57:05;;;;;;;10.18;5.05;;;21.30;99.90;;;;;;6239772;23;20000;-70
2022/10/28 12:00:22;;;;;;;14.95;5.07;;;21.30;99.90;;;;;;6240915;23;20103;-70
2022/10/28 12:03:08;;;;;;;11.02;5.03;;;21.40;99.90;;;;;;6177804;23;20024;-70
2022/10/28 12:05:44;;;;;;;9.23;6.00;;;21.50;99.90;;;;;;6178390;23;20008;-70
2022/10/28 12:08:13;;;;;;;10.65;4.93;;;21.50;99.90;;;;;;6177807;23;20021;-70
2022/10/28 12:10:52;;;;;;;10.48;4.60;;;21.50;99.90;;;;;;6177672;23;20036;-70
2022/10/28 12:13:29;;;;;;;12.02;4.88;;;21.40;99.90;;;;;;6177465;23;20020;-70
2022/10/28 12:16:20;;;;;;;12.50;5.28;;;21.60;99.90;;;;;;6177902;23;20020;-70
2022/10/28 12:19:02;;;;;;;11.50;5.93;;;21.50;99.90;;;;;;6175623;23;20346;-70
2022/10/28 12:21:34;;;;;;;10.77;4.28;;;21.50;99.90;;;;;;6177685;23;20076;-70
2022/10/28 12:24:02;;;;;;;9.10;4.60;;;21.60;99.90;;;;;;6152974;23;20496;-70
2022/10/28 12:26:40;;;;;;;18.25;5.60;;;22.20;99.90;;;;;;6175913;23;20008;-71
2022/10/28 12:29:25;;;;;;;10.57;4.47;;;21.70;99.90;;;;;;6177283;23;20387;-71
2022/10/28 12:32:03;;;;;;;9.02;4.47;;;21.60;99.90;;;;;;6177231;23;20009;-71
2022/10/28 12:34:41;;;;;;;6.60;4.03;;;21.60;99.90;;;;;;6177978;23;20078;-71
2022/10/28 12:37:12;;;;;;;11.27;4.72;;;21.70;99.90;;;;;;6177580;23;20057;-71
2022/10/28 12:39:47;;;;;;;16.95;4.55;;;21.80;99.90;;;;;;6240412;22;20027;-71
2022/10/28 12:42:39;;;;;;;9.25;4.35;;;21.90;99.90;;;;;;6241351;22;20146;-71
2022/10/28 12:45:14;;;;;;;14.50;4.70;;;21.90;99.90;;;;;;6241194;22;19996;-70
2022/10/28 12:48:05;;;;;;;13.50;4.82;;;21.80;99.90;;;;;;6240209;22;20023;-72
2022/10/28 12:50:41;;;;;;;17.98;4.93;;;21.90;99.90;;;;;;6240735;22;20000;-70
2022/10/28 12:53:53;;;;;;;10.50;4.22;;;21.90;99.90;;;;;;6241076;22;20011;-71
2022/10/28 12:56:39;;;;;;;14.57;4.38;;;21.90;99.90;;;;;;6177196;23;20074;-71